Latest Weather Observations for Liawenee

IDT60801

Issued at 7:01 am EST Monday 2 May 2016 (issued every 30 minutes, with the page automatically refreshed every 10 minutes)

About weather observations | Map of weather stations | Latest weather observations for TAS | Other Formats
Station Details ID: 096033 Name: LIAWENEE Lat: -41.90 Lon: 146.67 Height: 1057.0 m
Data from the previous 72 hours. | See also: Recent months at Liawenee
Date/Time
EST
Temp
°C
App
Temp
°C
Dew
Point
Rel
Hum
%
Delta-T
°C
Wind Press
QNH
hPa
Press
MSL
hPa
Rain
since 9 am
mm
Dir
 
Spd
km/h
Gust
km/h
Spd
kts
Gust
kts
02/07:00am 2.7 -4.5 0.9 88 0.7 W 28 39 15 21 1003.1 1003.9 12.6
02/06:30am 2.9 -4.2 1.6 91 0.5 W 28 41 15 22 1002.9 1003.7 12.6
02/06:00am 2.5 -4.3 1.0 90 0.6 W 26 43 14 23 1003.1 1003.9 12.6
02/05:30am 2.2 -5.4 0.6 89 0.6 W 30 44 16 24 1003.3 1004.1 12.6
02/05:00am 2.0 -4.0 1.0 93 0.4 W 22 32 12 17 1003.2 1004.0 12.6
02/04:30am 1.6 -4.9 0.4 92 0.5 W 24 37 13 20 1003.1 1003.9 12.6
02/04:00am 1.7 -4.3 0.8 94 0.4 W 22 30 12 16 1003.0 1003.8 12.6
02/03:30am 1.6 -4.9 0.6 93 0.4 W 24 33 13 18 1003.0 1003.8 12.6
02/03:00am 1.2 -4.1 -0.3 90 0.6 WNW 17 28 9 15 1003.2 1004.0 12.6
02/02:30am 1.6 -6.4 0.3 91 0.5 W 32 43 17 23 1003.0 1003.8 12.6
02/02:00am 1.4 -5.8 0.7 95 0.3 W 28 39 15 21 1002.9 1003.7 12.4
02/01:30am 1.3 -4.4 0.7 96 0.2 W 20 30 11 16 1002.8 1003.6 12.4
02/01:00am 1.2 -5.7 0.3 94 0.4 W 26 39 14 21 1002.8 1003.6 12.4
02/12:39am 1.2 -6.9 -0.1 91 0.5 W 32 50 17 27 1002.8 1003.6 12.4
02/12:30am 1.3 -7.0 -0.3 89 0.6 WSW 33 50 18 27 1002.6 1003.3 12.4
02/12:00am 1.2 -6.1 0.0 92 0.5 W 28 46 15 25 1002.8 1003.6 12.4
 
Date/Time
EST
Temp
°C
App
Temp
°C
Dew
Point
Rel
Hum
%
Delta-T
°C
Wind Press
QNH
hPa
Press
MSL
hPa
Rain
since 9 am
mm
Dir
 
Spd
km/h
Gust
km/h
Spd
kts
Gust
kts
01/11:31pm 1.1 -6.5 0.4 95 0.3 W 30 48 16 26 1002.2 1003.0 12.4
01/11:30pm 1.0 -6.3 0.3 95 0.3 W 28 43 15 23 1002.2 1003.0 12.4
01/11:00pm 0.8 -6.6 -0.5 91 0.5 WSW 28 39 15 21 1002.1 1002.9 12.4
01/10:49pm 0.8 -7.3 -0.5 91 0.5 WSW 32 50 17 27 1002.3 1003.1 12.4
01/10:30pm 1.3 -6.3 0.6 95 0.3 WSW 30 39 16 21 1002.4 1003.2 12.4
01/10:00pm 1.3 -8.1 -0.2 90 0.6 WSW 39 52 21 28 1001.9 1002.7 12.4
01/09:34pm 1.3 -5.9 0.6 95 0.3 WSW 28 48 15 26 1002.1 1002.9 12.2
01/09:30pm 1.2 -6.0 0.5 95 0.3 WSW 28 35 15 19 1002.1 1002.9 12.2
01/09:00pm 1.4 -6.8 0.1 91 0.5 WSW 33 46 18 25 1001.7 1002.4 12.2
01/08:30pm 1.6 -7.0 0.4 92 0.5 WSW 35 56 19 30 1001.1 1001.9 12.2
01/08:09pm 2.0 -6.1 0.7 91 0.5 W 33 54 18 29 1000.4 1001.2 12.0
01/08:00pm 1.9 -7.0 0.9 93 0.4 W 37 50 20 27 1000.1 1000.8 12.0
01/07:30pm 2.6 -7.3 1.4 92 0.5 WSW 43 63 23 34 999.3 1000.0 12.0
01/07:04pm 2.6 -7.5 1.6 93 0.4 WSW 44 65 24 35 998.3 999.0 12.0
01/07:00pm 2.5 -7.6 1.3 92 0.5 WSW 44 59 24 32 998.1 998.8 12.0
01/06:30pm 2.9 -6.6 1.7 92 0.5 WSW 41 59 22 32 997.6 998.2 12.0
01/06:00pm 2.6 -7.5 1.7 94 0.4 WSW 44 65 24 35 996.5 997.1 12.0
01/05:39pm 2.6 -7.9 1.7 94 0.4 WSW 46 65 25 35 995.5 996.1 12.0
01/05:30pm 2.7 -7.7 1.8 94 0.4 WSW 46 61 25 33 995.3 996.0 11.8
01/05:00pm 3.1 -6.0 2.1 93 0.4 WSW 39 57 21 31 995.6 996.2 11.6
01/04:30pm 3.3 -6.5 2.1 92 0.5 WSW 43 70 23 38 994.9 995.5 11.4
01/04:00pm 3.2 -7.2 2.0 92 0.5 W 46 69 25 37 993.4 993.9 11.2
01/03:59pm 3.3 -7.4 2.3 93 0.4 WSW 48 69 26 37 993.4 993.9 11.2
01/03:30pm 3.6 -7.5 2.4 92 0.5 W 50 78 27 42 991.2 991.8 11.2
01/03:00pm 3.5 -8.0 2.5 93 0.4 W 52 72 28 39 990.7 991.2 10.8
01/02:30pm 4.1 -6.9 3.2 94 0.4 W 50 69 27 37 990.3 990.7 9.6
01/02:00pm 5.7 -3.7 4.2 90 0.7 WNW 43 65 23 35 989.6 990.0 7.2
01/01:30pm 7.2 0.8 5.3 88 0.9 WNW 28 50 15 27 989.5 989.9 7.2
01/01:00pm 6.9 2.0 5.1 88 0.9 NW 20 39 11 21 990.4 990.8 7.0
01/12:30pm 7.3 3.0 5.4 88 0.9 NW 17 32 9 17 990.9 991.4 5.8
01/12:00pm 7.5 3.0 6.8 95 0.3 N 20 30 11 16 991.5 992.0 5.8
01/11:30am 7.1 4.1 5.9 92 0.6 N 11 19 6 10 992.8 993.3 5.6
01/11:00am 4.4 0.1 3.4 93 0.4 WNW 15 20 8 11 993.7 994.3 5.6
01/10:30am 5.3 -2.0 2.7 83 1.1 NNW 30 57 16 31 995.5 996.1 3.0
01/10:00am 7.9 1.9 7.0 94 0.4 N 28 52 15 28 994.7 995.3 1.0
01/09:30am 7.6 2.3 6.7 94 0.4 N 24 46 13 25 995.2 994.8 0.0
01/09:00am 7.6 2.5 6.1 90 0.7 N 22 39 12 21 996.5 996.0 16.4
01/08:30am 7.7 2.6 6.2 90 0.7 N 22 44 12 24 997.6 997.1 15.2
01/08:00am 8.1 3.2 6.7 91 0.7 N 22 44 12 24 998.8 998.4 14.4
01/07:30am 8.2 4.7 7.1 93 0.5 NNW 15 24 8 13 999.3 999.0 11.8
01/07:00am 7.8 3.9 7.1 95 0.3 WNW 17 26 9 14 999.6 999.2 10.4
01/06:30am 8.0 3.0 6.3 89 0.8 WNW 22 41 12 22 999.7 999.3 9.2
01/06:00am 11.0 6.4 9.6 91 0.8 N 24 39 13 21 999.9 999.5 8.6
01/05:30am 11.1 5.4 9.7 91 0.7 NNE 30 50 16 27 1000.3 1000.0 8.2
01/05:06am 11.3 6.0 9.7 90 0.9 N 28 48 15 26 1001.2 1000.9 8.2
01/05:00am 11.2 6.3 9.8 91 0.8 N 26 44 14 24 1001.6 1001.2 8.2
01/04:30am 11.2 6.6 9.8 91 0.8 N 24 52 13 28 1002.1 1001.8 8.2
01/04:16am 11.2 5.8 9.6 90 0.9 N 28 48 15 26 1002.6 1002.3 8.2
01/04:00am 11.1 6.9 9.9 92 0.6 NNW 22 39 12 21 1002.7 1002.4 8.2
01/03:41am 11.5 6.2 9.9 90 0.9 N 28 50 15 27 1002.8 1002.5 4.8
01/03:30am 11.3 7.6 10.0 92 0.7 N 20 43 11 23 1002.7 1002.4 4.4
01/03:00am 11.2 7.2 8.9 86 1.2 N 20 39 11 21 1003.2 1002.9 4.2
01/02:30am 11.0 6.6 8.9 87 1.1 N 22 48 12 26 1004.1 1003.8 4.0
01/02:00am 10.6 6.0 8.2 85 1.2 NNW 22 41 12 22 1004.5 1004.3 4.0
01/01:30am 10.7 5.3 7.9 83 1.4 NNW 26 44 14 24 1005.1 1004.9 4.0
01/01:13am 11.1 5.4 8.5 84 1.4 NNW 28 48 15 26 1005.8 1005.5 4.0
01/01:00am 10.5 5.6 8.6 88 1.0 NNW 24 43 13 23 1006.1 1005.9 4.0
01/12:30am 10.5 5.3 8.9 90 0.8 NW 26 48 14 26 1006.9 1006.7 4.0
01/12:21am 10.6 4.7 9.2 91 0.7 NW 30 57 16 31 1007.0 1006.8 4.0
01/12:00am 10.4 6.1 9.3 93 0.6 NNW 22 44 12 24 1007.7 1007.5 2.6
 
Date/Time
EST
Temp
°C
App
Temp
°C
Dew
Point
Rel
Hum
%
Delta-T
°C
Wind Press
QNH
hPa
Press
MSL
hPa
Rain
since 9 am
mm
Dir
 
Spd
km/h
Gust
km/h
Spd
kts
Gust
kts
30/11:30pm 10.6 6.3 9.4 92 0.6 NNW 22 39 12 21 1007.7 1007.5 1.8
30/11:00pm 11.1 6.0 9.2 88 1.0 NW 26 44 14 24 1008.2 1008.0 0.4
30/10:30pm 10.7 6.7 9.0 89 0.9 NW 20 39 11 21 1008.8 1008.6 0.2
30/10:00pm 10.8 5.9 8.4 85 1.3 NW 24 48 13 26 1009.1 1008.9 0.2
30/09:30pm 10.6 5.6 8.2 85 1.2 NW 24 43 13 23 1009.2 1009.1 0.0
30/09:00pm 10.6 5.8 8.7 88 1.0 NW 24 52 13 28 1009.8 1009.6 0.0
30/08:30pm 10.2 5.6 8.1 87 1.1 NW 22 44 12 24 1009.4 1009.3 0.0
30/08:00pm 10.6 6.6 8.9 89 0.9 NW 20 35 11 19 1009.6 1009.5 0.0
30/07:30pm 10.5 5.9 8.1 85 1.2 NW 22 41 12 22 1009.9 1009.7 0.0
30/07:00pm 10.7 4.8 7.6 81 1.6 NW 28 46 15 25 1010.0 1009.9 0.0
30/06:33pm 10.5 4.6 7.4 81 1.6 NW 28 46 15 25 1010.0 1009.9 0.0
30/06:30pm 10.3 4.3 7.2 81 1.6 NW 28 43 15 23 1009.9 1009.7 0.0
30/06:00pm 10.4 6.0 7.5 82 1.5 NW 20 44 11 24 1009.8 1009.6 0.0
30/05:30pm 10.9 5.8 7.8 81 1.6 NW 24 43 13 23 1010.0 1009.9 0.0
30/05:01pm 10.6 4.7 7.7 82 1.5 NW 28 46 15 25 1010.0 1009.9 0.0
30/05:00pm 10.6 4.4 7.7 82 1.5 NW 30 46 16 25 1010.0 1009.9 0.0
30/04:30pm 11.0 5.2 7.9 81 1.6 NW 28 48 15 26 1010.0 1009.9 0.0
30/04:00pm 11.2 6.7 8.4 83 1.5 NW 22 39 12 21 1010.2 1010.1 0.0
30/03:30pm 11.5 6.5 8.2 80 1.7 NW 24 41 13 22 1010.3 1010.2 0.0
30/03:00pm 11.6 7.5 8.5 81 1.6 NW 20 41 11 22 1010.2 1010.1 0.0
30/02:30pm 12.0 7.9 8.5 79 1.8 NW 20 32 11 17 1010.4 1010.3 0.0
30/02:00pm 12.1 7.5 8.0 76 2.1 NW 22 41 12 22 1010.5 1010.4 0.0
30/01:38pm 12.4 6.5 7.5 72 2.5 NW 28 52 15 28 1010.5 1010.4 0.0
30/01:30pm 12.5 7.6 8.4 76 2.2 NW 24 41 13 22 1010.5 1010.4 0.0
30/01:00pm 11.4 7.0 9.1 86 1.2 NW 22 46 12 25 1010.9 1010.8 0.0
30/12:30pm 10.6 5.8 9.0 90 0.8 N 24 44 13 24 1011.1 1011.0 0.0
30/12:00pm 9.8 5.9 8.7 93 0.6 NNW 19 32 10 17 1011.9 1011.8 0.0
30/11:30am 9.9 6.4 8.7 92 0.6 NNW 17 35 9 19 1012.4 1012.4 0.0
30/11:00am 10.0 5.8 8.1 88 1.0 NNW 20 33 11 18 1012.6 1012.6 0.0
30/10:30am 10.4 6.2 8.2 86 1.1 NNW 20 32 11 17 1012.7 1012.7 0.0
30/10:00am 10.1 5.8 7.7 85 1.2 NNW 20 39 11 21 1013.0 1012.9 0.0
30/09:30am 9.4 5.7 7.8 90 0.8 NNW 17 33 9 18 1013.2 1013.1 0.0
30/09:00am 8.9 4.4 7.0 88 0.9 NNW 20 37 11 20 1013.2 1013.1 18.6
30/08:30am 8.7 4.8 7.0 89 0.8 NNW 17 30 9 16 1013.3 1013.3 18.6
30/08:00am 8.5 4.1 6.6 88 0.9 NNW 19 35 10 19 1013.0 1012.9 18.6
30/07:30am 8.2 3.8 6.5 89 0.8 NNW 19 32 10 17 1013.0 1012.9 18.6
30/07:00am 7.5 3.3 5.8 89 0.8 NNW 17 30 9 16 1012.7 1012.7 18.6
30/06:30am 7.2 4.5 5.7 90 0.7 NW 9 19 5 10 1012.6 1012.6 18.6
30/06:00am 6.7 3.9 5.0 89 0.8 NNW 9 19 5 10 1012.3 1012.2 18.6
30/05:30am 7.0 3.4 5.2 88 0.8 NNW 13 22 7 12 1012.3 1012.2 18.6
30/05:00am 6.9 3.8 5.5 91 0.7 NW 11 19 6 10 1012.3 1012.2 18.6
30/04:30am 7.1 2.9 5.7 91 0.7 NW 17 28 9 15 1012.1 1012.0 18.6
30/04:00am 7.3 3.5 5.8 90 0.7 NW 15 24 8 13 1012.1 1012.0 18.6
30/03:30am 7.4 3.2 5.9 90 0.7 NW 17 28 9 15 1011.9 1011.8 18.6
30/03:00am 7.2 3.4 5.7 90 0.7 NNW 15 28 8 15 1011.9 1011.8 18.6
30/02:30am 7.4 2.7 5.9 90 0.7 NW 20 37 11 20 1011.9 1011.8 18.6
30/02:00am 7.4 2.7 5.9 90 0.7 WNW 20 39 11 21 1012.1 1012.0 18.6
30/01:30am 7.2 2.4 5.8 91 0.7 WNW 20 35 11 19 1012.2 1012.1 18.6
30/01:00am 7.1 2.9 5.7 91 0.7 NW 17 32 9 17 1012.1 1012.0 18.6
30/12:30am 7.2 3.4 5.7 90 0.7 NW 15 26 8 14 1012.1 1012.0 18.6
30/12:00am 7.3 3.5 5.9 91 0.7 NW 15 22 8 12 1012.0 1011.9 18.6
 
Date/Time
EST
Temp
°C
App
Temp
°C
Dew
Point
Rel
Hum
%
Delta-T
°C
Wind Press
QNH
hPa
Press
MSL
hPa
Rain
since 9 am
mm
Dir
 
Spd
km/h
Gust
km/h
Spd
kts
Gust
kts
29/11:30pm 7.5 3.7 6.0 90 0.7 NW 15 22 8 12 1012.3 1012.2 18.6
29/11:00pm 8.2 4.2 6.7 90 0.7 NW 17 28 9 15 1012.4 1012.4 18.6
29/10:30pm 8.9 4.5 7.5 91 0.7 WNW 20 33 11 18 1012.1 1012.0 18.6
29/10:00pm 9.9 6.0 8.8 93 0.6 NW 19 33 10 18 1012.1 1012.0 18.4
29/09:30pm 9.6 6.8 8.5 93 0.6 NW 13 24 7 13 1012.1 1012.0 18.2
29/09:00pm 9.5 6.7 8.6 94 0.5 NNW 13 20 7 11 1012.0 1011.9 18.2
29/08:30pm 9.5 6.7 8.4 93 0.6 NNW 13 20 7 11 1011.8 1011.7 18.2
29/08:00pm 9.5 5.9 8.3 92 0.6 NW 17 28 9 15 1011.5 1011.4 18.2
29/07:30pm 9.3 5.5 7.7 90 0.8 NW 17 26 9 14 1011.4 1011.3 18.2
29/07:00pm 9.6 6.3 8.2 91 0.7 NNW 15 22 8 12 1011.4 1011.3 18.2
29/06:30pm 9.5 5.5 8.3 92 0.6 NW 19 30 10 16 1011.3 1011.2 18.0
29/06:00pm 9.6 6.0 8.5 93 0.6 NW 17 26 9 14 1011.5 1011.4 17.2
29/05:30pm 9.8 5.7 8.7 93 0.6 NW 20 35 11 19 1011.5 1011.4 15.8
29/05:00pm 9.6 5.7 8.5 93 0.6 NW 19 30 10 16 1011.3 1011.2 14.4
29/04:30pm 10.3 6.0 9.2 93 0.6 N 22 43 12 23 1011.0 1010.9 12.6
29/04:12pm 9.9 4.3 8.7 92 0.6 N 28 52 15 28 1010.8 1010.7 10.8
29/04:00pm 10.3 5.2 9.2 93 0.6 N 26 44 14 24 1010.8 1010.7 10.0
29/03:30pm 10.3 5.5 8.7 90 0.8 N 24 41 13 22 1011.1 1011.0 8.4
29/03:04pm 10.7 5.2 9.3 91 0.7 N 28 48 15 26 1011.2 1011.1 6.8
29/03:00pm 10.7 5.6 9.3 91 0.7 N 26 48 14 26 1011.2 1011.1 6.6
29/02:30pm 10.9 5.5 9.5 91 0.7 N 28 59 15 32 1011.5 1011.4 4.4
29/02:24pm 11.1 5.7 9.5 90 0.9 N 28 59 15 32 1011.6 1011.6 4.2
29/02:00pm 11.1 6.8 9.5 90 0.9 N 22 37 12 20 1011.8 1011.7 3.0
29/01:30pm 11.0 7.2 9.9 93 0.6 N 20 39 11 21 1011.8 1011.7 1.8
29/01:00pm 11.5 8.3 9.9 90 0.9 N 17 30 9 16 1012.2 1012.1 0.8
29/12:30pm 11.5 7.9 9.8 89 0.9 NNW 19 32 10 17 1013.1 1013.0 0.4
29/12:00pm 12.0 8.3 10.2 89 1.0 N 20 39 11 21 1013.6 1013.6 0.2
29/11:30am 11.9 8.4 10.3 90 0.9 N 19 32 10 17 1014.3 1014.3 0.2
29/11:00am 12.0 8.2 9.9 87 1.1 N 20 32 11 17 1015.0 1015.0 0.2
29/10:30am 12.3 8.4 9.3 82 1.6 NNW 20 33 11 18 1015.4 1015.4 0.2
29/10:00am 12.7 8.4 9.5 81 1.7 N 22 33 12 18 1015.4 1015.4 0.2
29/09:30am 13.3 9.4 9.4 77 2.1 NNW 20 33 11 18 1015.7 1015.8 0.2
29/09:00am 11.8 8.9 9.7 87 1.1 N 15 28 8 15 1016.2 1016.2 0.0
29/08:30am 10.9 8.5 10.0 94 0.5 N 13 22 7 12 1016.8 1016.9 0.0
29/08:00am 10.7 7.1 9.8 94 0.5 N 19 30 10 16 1017.0 1017.0 0.0
29/07:30am 10.5 6.6 9.6 94 0.5 N 20 33 11 18 1016.5 1016.6 0.0

Other Formats:

Comma delimited format used in spreadsheet applications
http://www.bom.gov.au/fwo/IDT60801/IDT60801.95959.axf

JavaScript Object Notation format (JSON) in row-major order
http://www.bom.gov.au/fwo/IDT60801/IDT60801.95959.json